Terminal Aerodrome Forecast
Issued by NWS

Home | Current Version | Previous Version | Text Only | Print | Product List | Glossary On
Versions: 1 2 3 4 5 6 7 8 9 10 11 12 13 14 15
000
FTUS43 KMPX 011425 AAA
TAFRNH
TAF AMD
KRNH 011425Z 0114/0212 23008KT P6SM OVC013
     FM011600 26008KT P6SM SCT250
     FM012000 28010G15KT P6SM FEW020 BKN050
     FM020300 28008KT P6SM SKC=

USA.gov is the U.S. government's official web portal to all federal, state and local government web resources and services.